Weather at Dijon-Bourgogne Airport

Public forecast

Using degrees Celsius for public forecast. Weather courtesy of forecast.io.

Current aviation weather report (METAR) for Dijon-Bourgogne Airport

Report is more than 6 hours old.

2022/11/14 15:30 (retrieved 2 years ago)

LFSD 141530Z AUTO 18006KT CAVOK 14/09 Q1014

Closest aviation forecast (TAF) to Dijon-Bourgogne Airport

Forecast is more than 12 hours old.

Closest forecast is Luxeuil-Saint-Sauveur (BA 116) Air Base, 60.2 nm (111.4 km) ENE.

2023/02/22 17:12 Ammendment (retrieved 1 year ago)

TAF AMD TAF AMD LFSX 221708Z 2217/2315 CNL